Flight Number: EUR1439 Duration: 3:00
Departure: Amsterdam Schiphol (EHAM) at 08:15 Distance: 1106 Nm
Arrival: Skiathos (LGSK) at 11:15 Equipment: B737

Weather Information
Amsterdam Airport Schiphol, Netherlands (EHAM) 52-18N 004-46E -2M Nov 19, 2017 - 10:25 PM EST / 2017.11.20 0325 UTC
Wind: from the WSW (250 degrees) at 10 MPH (9 KT):0
Visibility: greater than 7 mile(s):0 Temperature: 44 F (7 C) Dew Point: 35 F (2 C) Relative Humidity: 70% Pressure (altimeter): 30.06 in. Hg (1018 hPa)
ob: EHAM 200325Z 25009KT CAVOK 07/02 Q1018 NOSIG cycle: 3
Sunrise: 07:16 Sunset: 15:37 (UTC)

Skiathos Island, Greece (LGSK) 39-11N 023-30E Nov 19, 2017 - 12:50 PM EST / 2017.11.19 1750 UTC
Wind: Calm:0
Visibility: greater than 7 mile(s):0
Sky conditions: partly cloudy Temperature: 55 F (13 C) Dew Point: 51 F (11 C) Relative Humidity: 87% Pressure (altimeter): 29.80 in. Hg (1009 hPa)
ob: LGSK 191750Z 00000KT 9999 FEW010 SCT025 13/11 Q1009 cycle: 18
Sunrise: 05:18 Sunset: 15:04 (UTC)

TAF:2012/09/27 00:18 TAF LGSK 272300Z 2800/2909 01010KT 9999 FEW020

Previous Pireps for this route
Date Aircraft Flight time Fuel used Landing rate On time
2014-10-10B7372.52184140Yes
2015-10-12B73702.5225727-364No
2017-02-21B7373.1023104-304No
(pireps marked green are flown by you)

Route map